Time;durP1;ratioP1;P1;durP2;ratioP2;P2;SDS_P1;SDS_P2;PMS_P1;PMS_P2;Temp;Humidity;BMP_temperature;BMP_pressure;BME280_temperature;BME280_humidity;BME280_pressure;Samples;Min_cycle;Max_cycle;Signal;HPM_P1;HPM_P2
2022/04/25 00:01:03;;;;;;;;;;;9.20;99.90;;;;;;5025780;28;19917;-67
2022/04/25 00:03:29;;;;;;;;;;;9.20;99.90;;;;;;5026102;28;20154;-68
2022/04/25 00:05:54;;;;;;;;;;;9.10;99.90;;;;;;5025799;28;19924;-68
2022/04/25 00:08:20;;;;;;;;;;;9.00;99.90;;;;;;5025466;28;20335;-69
2022/04/25 00:10:46;;;;;;;;;;;9.10;99.90;;;;;;5025149;28;19909;-68
2022/04/25 00:13:13;;;;;;;;;;;9.10;99.90;;;;;;5025426;28;19974;-67
2022/04/25 00:15:39;;;;;;;;;;;9.10;99.90;;;;;;5025474;28;20155;-67
2022/04/25 00:18:05;;;;;;;;;;;9.00;99.90;;;;;;5025437;28;20200;-67
2022/04/25 00:20:31;;;;;;;;;;;9.00;99.90;;;;;;5025560;28;19917;-67
2022/04/25 00:23:00;;;;;;;;;;;9.00;99.90;;;;;;5025288;28;19909;-68
2022/04/25 00:25:28;;;;;;;;;;;9.00;99.90;;;;;;5025353;28;19909;-68
2022/04/25 00:27:53;;;;;;;;;;;9.00;99.90;;;;;;5024615;28;20255;-67
2022/04/25 00:30:20;;;;;;;;;;;9.00;99.90;;;;;;5025238;28;19909;-68
2022/04/25 00:32:46;;;;;;;;;;;9.00;99.90;;;;;;5025006;28;20003;-67
2022/04/25 00:35:11;;;;;;;;;;;9.00;99.90;;;;;;5025270;28;19909;-67
2022/04/25 00:37:37;;;;;;;;;;;8.90;99.90;;;;;;5025018;28;19909;-68
2022/04/25 00:40:03;;;;;;;;;;;8.90;99.90;;;;;;5025154;28;19917;-68
2022/04/25 00:42:29;;;;;;;;;;;8.90;99.90;;;;;;5024454;28;19980;-68
2022/04/25 00:44:54;;;;;;;;;;;8.80;99.90;;;;;;5024950;28;19909;-70
2022/04/25 00:47:20;;;;;;;;;;;8.80;99.90;;;;;;5025017;28;19917;-68
2022/04/25 00:49:46;;;;;;;;;;;8.80;99.90;;;;;;5024640;28;20116;-67
2022/04/25 00:52:12;;;;;;;;;;;8.80;99.90;;;;;;5024561;28;20238;-68
2022/04/25 00:54:37;;;;;;;;;;;8.80;99.90;;;;;;5023450;28;19910;-68
2022/04/25 00:57:03;;;;;;;;;;;8.70;99.90;;;;;;5023690;28;19917;-68
2022/04/25 00:59:29;;;;;;;;;;;8.70;99.90;;;;;;5024339;28;20193;-68
2022/04/25 01:01:55;;;;;;;;;;;8.70;99.90;;;;;;5024062;28;19917;-68
2022/04/25 01:04:21;;;;;;;;;;;8.70;99.90;;;;;;5056637;28;19972;-67
2022/04/25 01:06:48;;;;;;;;;;;8.70;99.90;;;;;;5025014;28;19909;-68
2022/04/25 01:09:13;;;;;;;;;;;8.70;99.90;;;;;;5023733;28;19929;-68
2022/04/25 01:11:39;;;;;;;;;;;8.70;99.90;;;;;;5024395;28;19910;-68
2022/04/25 01:14:15;;;;;;;;;;;8.60;99.90;;;;;;5024853;28;19955;-68
2022/04/25 01:16:42;;;;;;;;;;;8.70;99.90;;;;;;5023654;28;19920;-68
2022/04/25 01:19:07;;;;;;;;;;;8.60;99.90;;;;;;5024707;28;19909;-68
2022/04/25 01:21:43;;;;;;;;;;;8.60;99.90;;;;;;5024505;28;19985;-68
2022/04/25 01:29:37;;;;;;;;;;;8.60;99.90;;;;;;5024277;28;20112;-67
2022/04/25 01:32:04;;;;;;;;;;;8.60;99.90;;;;;;5024291;28;20125;-67
2022/04/25 01:34:30;;;;;;;;;;;8.60;99.90;;;;;;5024155;28;19932;-68
2022/04/25 01:36:56;;;;;;;;;;;8.60;99.90;;;;;;5024628;28;19917;-68
2022/04/25 01:39:22;;;;;;;;;;;8.50;99.90;;;;;;5024498;28;19945;-67
2022/04/25 01:41:48;;;;;;;;;;;8.60;99.90;;;;;;5023897;28;20251;-68
2022/04/25 01:44:13;;;;;;;;;;;8.60;99.90;;;;;;5024295;28;20219;-68
2022/04/25 01:46:39;;;;;;;;;;;8.50;99.90;;;;;;5024245;28;19947;-67
2022/04/25 01:49:05;;;;;;;;;;;8.50;99.90;;;;;;5024088;28;20247;-67
2022/04/25 01:51:32;;;;;;;;;;;8.50;99.90;;;;;;5023920;28;19972;-67
2022/04/25 01:53:57;;;;;;;;;;;8.50;99.90;;;;;;5055755;28;19917;-66
2022/04/25 01:56:23;;;;;;;;;;;8.60;99.90;;;;;;5023199;28;19910;-67
2022/04/25 01:58:48;;;;;;;;;;;8.50;99.90;;;;;;5023980;28;19909;-67
2022/04/25 02:01:14;;;;;;;;;;;8.50;99.90;;;;;;5023714;28;20120;-67
2022/04/25 02:03:41;;;;;;;;;;;8.50;99.90;;;;;;5023841;28;20001;-66
2022/04/25 02:06:06;;;;;;;;;;;8.50;99.90;;;;;;5023890;28;19976;-67
2022/04/25 02:08:32;;;;;;;;;;;8.50;99.90;;;;;;5023629;28;19960;-66
2022/04/25 02:13:42;;;;;;;;;;;8.40;99.90;;;;;;5022916;28;19924;-67
2022/04/25 02:16:08;;;;;;;;;;;8.50;99.90;;;;;;5023601;28;19909;-67
2022/04/25 02:18:35;;;;;;;;;;;8.50;99.90;;;;;;5023586;28;19909;-66
2022/04/25 02:21:00;;;;;;;;;;;8.50;99.90;;;;;;5023374;28;19913;-68
2022/04/25 02:23:26;;;;;;;;;;;8.50;99.90;;;;;;5023511;28;19916;-67
2022/04/25 02:25:52;;;;;;;;;;;8.50;99.90;;;;;;5055392;28;19921;-68
2022/04/25 02:28:17;;;;;;;;;;;8.50;99.90;;;;;;5023002;28;20216;-69
2022/04/25 02:30:43;;;;;;;;;;;8.50;99.90;;;;;;5023062;28;19916;-68
2022/04/25 02:33:09;;;;;;;;;;;8.50;99.90;;;;;;5023578;28;19918;-69
2022/04/25 02:35:35;;;;;;;;;;;8.50;99.90;;;;;;5023412;28;19945;-69
2022/04/25 02:38:00;;;;;;;;;;;8.50;99.90;;;;;;5023340;28;20004;-68
2022/04/25 02:40:26;;;;;;;;;;;8.50;99.90;;;;;;5023269;28;19916;-69
2022/04/25 02:42:52;;;;;;;;;;;8.60;99.90;;;;;;5022814;28;20263;-69
2022/04/25 02:45:18;;;;;;;;;;;8.60;99.90;;;;;;5023108;28;19945;-69
2022/04/25 02:47:44;;;;;;;;;;;8.60;99.90;;;;;;5023114;28;19909;-69
2022/04/25 02:50:10;;;;;;;;;;;8.60;99.90;;;;;;5023062;28;19977;-69
2022/04/25 02:52:35;;;;;;;;;;;8.60;99.90;;;;;;5022723;28;19913;-69
2022/04/25 02:55:01;;;;;;;;;;;8.60;99.90;;;;;;5055050;28;19936;-68
2022/04/25 02:57:27;;;;;;;;;;;8.50;99.90;;;;;;5022113;28;19956;-69
2022/04/25 02:59:52;;;;;;;;;;;8.50;99.90;;;;;;5022967;28;19964;-69
2022/04/25 03:02:18;;;;;;;;;;;8.50;99.90;;;;;;5022781;28;20223;-68
2022/04/25 03:04:44;;;;;;;;;;;8.50;99.90;;;;;;5023017;28;19914;-68
2022/04/25 03:07:09;;;;;;;;;;;8.40;99.90;;;;;;5023163;28;19976;-68
2022/04/25 03:09:35;;;;;;;;;;;8.40;99.90;;;;;;5022099;28;19913;-66
2022/04/25 03:12:01;;;;;;;;;;;8.50;99.90;;;;;;5022667;28;19971;-67
2022/04/25 03:14:26;;;;;;;;;;;8.40;99.90;;;;;;5022853;28;19910;-67
2022/04/25 03:16:52;;;;;;;;;;;8.50;99.90;;;;;;5022754;28;19917;-67
2022/04/25 03:19:18;;;;;;;;;;;8.40;99.90;;;;;;5022816;28;19917;-68
2022/04/25 03:21:44;;;;;;;;;;;8.40;99.90;;;;;;5022488;28;19917;-67
2022/04/25 03:24:09;;;;;;;;;;;8.40;99.90;;;;;;5022569;28;19972;-67
2022/04/25 03:26:37;;;;;;;;;;;8.40;99.90;;;;;;5022489;28;20175;-68
2022/04/25 03:29:03;;;;;;;;;;;8.30;99.90;;;;;;5022360;28;19933;-68
2022/04/25 03:31:28;;;;;;;;;;;8.40;99.90;;;;;;5054350;28;19936;-67
2022/04/25 03:33:54;;;;;;;;;;;8.40;99.90;;;;;;5022630;28;19914;-68
2022/04/25 03:36:20;;;;;;;;;;;8.30;99.90;;;;;;5020972;28;19916;-67
2022/04/25 03:38:46;;;;;;;;;;;8.40;99.90;;;;;;5022465;28;19917;-68
2022/04/25 03:41:11;;;;;;;;;;;8.40;99.90;;;;;;5021966;28;19909;-68
2022/04/25 03:43:37;;;;;;;;;;;8.40;99.90;;;;;;5022559;28;20266;-67
2022/04/25 03:46:03;;;;;;;;;;;8.40;99.90;;;;;;5022509;28;19926;-67
2022/04/25 03:48:28;;;;;;;;;;;8.40;99.90;;;;;;5022454;28;19914;-67
2022/04/25 03:50:54;;;;;;;;;;;8.40;99.90;;;;;;5022060;28;19917;-68
2022/04/25 03:53:20;;;;;;;;;;;8.40;99.90;;;;;;5022546;28;19909;-67
2022/04/25 03:58:30;;;;;;;;;;;8.40;99.90;;;;;;5022278;28;19956;-69
2022/04/25 04:00:56;;;;;;;;;;;8.40;99.90;;;;;;5053861;28;19916;-68
2022/04/25 04:03:22;;;;;;;;;;;8.50;99.90;;;;;;5022202;28;19917;-68
2022/04/25 04:05:48;;;;;;;;;;;8.50;99.90;;;;;;5022157;28;19918;-67
2022/04/25 04:08:13;;;;;;;;;;;8.50;99.90;;;;;;5022031;28;19917;-67
2022/04/25 04:10:40;;;;;;;;;;;8.50;99.90;;;;;;5021969;28;19913;-68
2022/04/25 04:13:05;;;;;;;;;;;8.50;99.90;;;;;;5021913;28;20139;-68
2022/04/25 04:15:31;;;;;;;;;;;8.60;99.90;;;;;;5022137;28;19917;-68
2022/04/25 04:17:57;;;;;;;;;;;8.50;99.90;;;;;;5021991;28;19985;-67
2022/04/25 04:20:23;;;;;;;;;;;8.50;99.90;;;;;;5037388;28;19980;-67
2022/04/25 04:22:49;;;;;;;;;;;8.50;99.90;;;;;;5021785;28;20212;-66
2022/04/25 04:25:14;;;;;;;;;;;8.50;99.90;;;;;;5054135;28;19937;-68
2022/04/25 04:27:41;;;;;;;;;;;8.60;99.90;;;;;;5021778;28;20201;-67
2022/04/25 04:30:08;;;;;;;;;;;8.60;99.90;;;;;;5022061;28;20300;-67
2022/04/25 04:32:34;;;;;;;;;;;8.50;99.90;;;;;;5021823;28;20121;-68
2022/04/25 04:35:01;;;;;;;;;;;8.50;99.90;;;;;;5021734;28;19916;-69
2022/04/25 04:37:28;;;;;;;;;;;8.50;99.90;;;;;;5024894;28;19916;-67
2022/04/25 04:40:28;;;;;;;;;;;8.50;99.90;;;;;;5025531;28;19909;-68
2022/04/25 04:42:40;;;;;;;;;;;8.50;99.90;;;;;;5022871;28;19973;-69
2022/04/25 04:45:06;;;;;;;;;;;8.60;99.90;;;;;;5021506;28;19921;-69
2022/04/25 04:47:34;;;;;;;;;;;8.60;99.90;;;;;;5025814;28;19939;-69
2022/04/25 04:50:00;;;;;;;;;;;8.50;99.90;;;;;;5022436;28;20115;-68
2022/04/25 04:52:25;;;;;;;;;;;8.50;99.90;;;;;;5025173;28;19980;-68
2022/04/25 04:54:51;;;;;;;;;;;8.60;99.90;;;;;;5025665;28;20124;-69
2022/04/25 04:57:17;;;;;;;;;;;8.60;99.90;;;;;;5024493;28;19925;-69
2022/04/25 04:59:42;;;;;;;;;;;8.60;99.90;;;;;;5025439;28;20024;-68
2022/04/25 05:02:09;;;;;;;;;;;8.60;99.90;;;;;;5056236;28;19910;-69
2022/04/25 05:04:34;;;;;;;;;;;8.60;99.90;;;;;;5025159;28;19909;-68
2022/04/25 05:07:00;;;;;;;;;;;8.60;99.90;;;;;;5057241;28;20260;-67
2022/04/25 05:09:26;;;;;;;;;;;8.60;99.90;;;;;;5023730;28;20024;-68
2022/04/25 05:11:51;;;;;;;;;;;8.60;99.90;;;;;;5024624;28;20179;-68
2022/04/25 05:14:17;;;;;;;;;;;8.70;99.90;;;;;;5024979;28;19964;-68
2022/04/25 05:16:43;;;;;;;;;;;8.70;99.90;;;;;;5025077;28;19917;-68
2022/04/25 05:19:08;;;;;;;;;;;8.70;99.90;;;;;;5024565;28;19910;-67
2022/04/25 05:21:35;;;;;;;;;;;8.70;99.90;;;;;;5019785;28;19918;-68
2022/04/25 05:24:00;;;;;;;;;;;8.70;99.90;;;;;;5024654;28;19920;-68
2022/04/25 05:26:26;;;;;;;;;;;8.70;99.90;;;;;;5022554;28;20311;-67
2022/04/25 05:28:52;;;;;;;;;;;8.80;99.90;;;;;;5023678;28;19961;-66
2022/04/25 05:31:17;;;;;;;;;;;8.80;99.90;;;;;;5031358;28;19948;-68
2022/04/25 05:33:43;;;;;;;;;;;8.80;99.90;;;;;;5023386;28;19947;-68
2022/04/25 05:36:09;;;;;;;;;;;8.90;99.90;;;;;;5016403;28;19977;-67
2022/04/25 05:38:34;;;;;;;;;;;8.90;99.90;;;;;;5021088;28;19925;-68
2022/04/25 05:41:00;;;;;;;;;;;8.90;99.90;;;;;;5020547;28;19980;-69
2022/04/25 05:43:26;;;;;;;;;;;8.90;99.90;;;;;;5023971;28;20190;-69
2022/04/25 05:45:51;;;;;;;;;;;8.90;99.90;;;;;;5023786;28;19909;-69
2022/04/25 05:53:45;;;;;;;;;;;9.00;99.90;;;;;;5024742;28;19916;-69
2022/04/25 05:56:11;;;;;;;;;;;9.00;99.90;;;;;;5023726;28;20124;-69
2022/04/25 05:58:37;;;;;;;;;;;9.00;99.90;;;;;;5024956;28;19925;-69
2022/04/25 06:01:02;;;;;;;;;;;9.00;99.90;;;;;;5024360;28;20144;-73
2022/04/25 06:03:28;;;;;;;;;;;9.00;99.90;;;;;;5016941;28;19909;-72
2022/04/25 06:05:54;;;;;;;;;;;9.00;99.90;;;;;;5015086;28;19916;-72
2022/04/25 06:08:20;;;;;;;;;;;9.00;99.90;;;;;;5023548;28;19925;-72
2022/04/25 06:10:46;;;;;;;;;;;8.90;99.90;;;;;;5023346;28;19910;-72
2022/04/25 06:13:13;;;;;;;;;;;8.90;99.90;;;;;;5023517;28;19916;-72
2022/04/25 06:15:39;;;;;;;;;;;9.00;99.90;;;;;;5055339;28;19948;-71
2022/04/25 06:18:05;;;;;;;;;;;9.00;99.90;;;;;;5023616;28;19910;-68
2022/04/25 06:20:31;;;;;;;;;;;9.00;99.80;;;;;;5023607;28;19976;-68
2022/04/25 06:22:58;;;;;;;;;;;9.00;99.90;;;;;;5023144;28;19909;-68
2022/04/25 06:25:24;;;;;;;;;;;9.00;99.90;;;;;;5023606;28;19910;-70
2022/04/25 06:27:50;;;;;;;;;;;9.10;99.90;;;;;;5021822;28;19910;-70
2022/04/25 06:30:16;;;;;;;;;;;9.20;99.90;;;;;;5023641;28;19983;-69
2022/04/25 06:32:41;;;;;;;;;;;9.20;99.90;;;;;;5022779;28;19951;-70
2022/04/25 06:35:08;;;;;;;;;;;9.30;99.90;;;;;;5023281;28;20098;-73
2022/04/25 06:37:34;;;;;;;;;;;9.40;99.90;;;;;;5022955;28;19909;-73
2022/04/25 06:39:59;;;;;;;;;;;9.50;99.90;;;;;;5038932;28;19960;-69
2022/04/25 06:42:25;;;;;;;;;;;9.50;99.40;;;;;;5022720;28;19917;-69
2022/04/25 06:44:51;;;;;;;;;;;9.60;99.50;;;;;;5022998;28;19916;-69
2022/04/25 06:47:17;;;;;;;;;;;9.60;99.80;;;;;;5023269;28;19917;-69
2022/04/25 06:49:43;;;;;;;;;;;9.60;99.90;;;;;;5023072;28;19917;-69
2022/04/25 06:52:09;;;;;;;;;;;9.60;99.90;;;;;;5022800;28;20112;-69
2022/04/25 06:54:35;;;;;;;;;;;9.70;99.90;;;;;;5023073;28;19921;-69
2022/04/25 06:57:01;;;;;;;;;;;9.80;99.90;;;;;;5054337;28;19961;-68
2022/04/25 06:59:27;;;;;;;;;;;9.90;99.70;;;;;;5022374;28;19917;-68
2022/04/25 07:01:53;;;;;;;;;;;10.00;99.30;;;;;;5022640;28;19924;-69
2022/04/25 07:04:19;;;;;;;;;;;9.90;99.70;;;;;;5022860;28;19917;-70
2022/04/25 07:06:44;;;;;;;;;;;10.10;99.50;;;;;;5054839;28;19972;-69
2022/04/25 07:09:13;;;;;;;;;;;10.20;99.60;;;;;;5022570;28;19914;-69
2022/04/25 07:11:43;;;;;;;;;;;10.30;99.80;;;;;;5053589;28;19917;-69
2022/04/25 07:14:17;;;;;;;;;;;10.40;99.00;;;;;;5022879;28;19913;-70
2022/04/25 07:16:44;;;;;;;;;;;10.50;99.10;;;;;;5022765;28;19956;-69
2022/04/25 07:19:14;;;;;;;;;;;10.50;99.10;;;;;;5022475;28;19917;-69
2022/04/25 07:29:52;;;;;;;;;;;10.70;98.80;;;;;;5022492;28;19928;-68
2022/04/25 07:32:18;;;;;;;;;;;10.70;98.30;;;;;;5022352;28;19917;-69
2022/04/25 07:34:47;;;;;;;;;;;10.70;98.00;;;;;;5054198;28;20112;-68
2022/04/25 07:37:13;;;;;;;;;;;10.60;98.20;;;;;;5022772;28;19918;-69
2022/04/25 07:39:39;;;;;;;;;;;10.60;98.30;;;;;;5022631;28;19913;-69
2022/04/25 07:42:05;;;;;;;;;;;10.50;98.50;;;;;;5021912;28;19909;-69
2022/04/25 07:44:31;;;;;;;;;;;10.50;98.60;;;;;;5022558;28;19913;-67
2022/04/25 07:46:56;;;;;;;;;;;10.50;98.70;;;;;;5022057;28;19955;-67
2022/04/25 07:49:22;;;;;;;;;;;10.40;98.80;;;;;;5022203;28;20245;-68
2022/04/25 07:51:48;;;;;;;;;;;10.40;99.10;;;;;;5022211;28;19964;-67
2022/04/25 07:54:14;;;;;;;;;;;10.40;99.20;;;;;;5022306;28;19955;-67
2022/04/25 07:56:42;;;;;;;;;;;10.40;98.90;;;;;;5021437;28;19909;-67
2022/04/25 07:59:08;;;;;;;;;;;10.60;98.70;;;;;;5021847;28;19940;-67
2022/04/25 08:01:34;;;;;;;;;;;10.60;98.50;;;;;;5021899;28;20205;-65
2022/04/25 08:04:00;;;;;;;;;;;10.60;98.30;;;;;;5020963;28;19917;-65
2022/04/25 08:06:26;;;;;;;;;;;10.70;98.60;;;;;;5022283;28;19910;-65
2022/04/25 08:08:52;;;;;;;;;;;10.70;98.40;;;;;;5022049;28;19914;-66
2022/04/25 08:11:18;;;;;;;;;;;10.70;98.30;;;;;;5022984;28;19956;-65
2022/04/25 08:19:15;;;;;;;;;;;11.00;97.60;;;;;;5025763;28;19924;-72
2022/04/25 08:21:42;;;;;;;;;;;11.10;97.30;;;;;;5025833;28;19909;-72
2022/04/25 08:24:07;;;;;;;;;;;11.20;97.30;;;;;;5057563;28;19917;-68
2022/04/25 08:26:33;;;;;;;;;;;11.20;97.30;;;;;;5025829;28;20044;-74
2022/04/25 08:29:02;;;;;;;;;;;11.30;97.40;;;;;;5025286;28;19926;-73
2022/04/25 08:31:27;;;;;;;;;;;11.40;97.10;;;;;;5025630;28;19917;-69
2022/04/25 08:33:53;;;;;;;;;;;11.40;96.80;;;;;;5027232;28;20267;-77
2022/04/25 08:36:20;;;;;;;;;;;11.60;96.40;;;;;;5042196;28;19910;-77
2022/04/25 08:38:46;;;;;;;;;;;11.70;95.90;;;;;;5026232;28;19910;-72
2022/04/25 08:41:13;;;;;;;;;;;11.60;95.00;;;;;;5025392;28;19980;-72
2022/04/25 08:43:39;;;;;;;;;;;11.60;95.40;;;;;;5057417;28;19944;-72
2022/04/25 08:46:07;;;;;;;;;;;11.60;95.30;;;;;;5025533;28;20201;-74
2022/04/25 08:48:32;;;;;;;;;;;11.70;94.90;;;;;;5040034;28;19953;-71
2022/04/25 08:50:58;;;;;;;;;;;11.70;95.00;;;;;;5040575;28;19917;-70
2022/04/25 08:53:24;;;;;;;;;;;11.70;94.70;;;;;;5040697;28;19977;-71
2022/04/25 08:55:50;;;;;;;;;;;11.70;94.30;;;;;;5040728;28;19916;-70
2022/04/25 08:58:16;;;;;;;;;;;11.80;94.60;;;;;;5024342;28;19917;-70
2022/04/25 09:00:42;;;;;;;;;;;11.90;94.90;;;;;;5024753;28;19981;-70
2022/04/25 09:03:07;;;;;;;;;;;12.10;94.40;;;;;;5024915;28;19956;-70
2022/04/25 09:05:36;;;;;;;;;;;12.30;94.30;;;;;;5024881;28;20116;-72
2022/04/25 09:08:01;;;;;;;;;;;12.60;93.80;;;;;;5056570;28;19910;-72
2022/04/25 09:10:27;;;;;;;;;;;12.90;93.70;;;;;;5056814;28;19964;-72
2022/04/25 09:12:53;;;;;;;;;;;13.10;93.00;;;;;;5056377;28;19925;-72
2022/04/25 09:15:22;;;;;;;;;;;13.30;92.50;;;;;;5057060;28;19910;-72
2022/04/25 09:17:48;;;;;;;;;;;13.30;91.50;;;;;;5024897;28;20214;-72
2022/04/25 09:20:14;;;;;;;;;;;13.20;91.20;;;;;;5056904;28;19909;-72
2022/04/25 09:22:40;;;;;;;;;;;13.10;91.40;;;;;;5056004;28;20196;-72
2022/04/25 09:25:10;;;;;;;;;;;13.00;91.00;;;;;;5024488;28;19917;-73
2022/04/25 09:27:36;;;;;;;;;;;13.00;91.90;;;;;;5023155;28;20235;-72
2022/04/25 09:30:18;;;;;;;;;;;13.00;91.90;;;;;;5024637;28;19914;-71
2022/04/25 09:32:48;;;;;;;;;;;12.90;91.50;;;;;;5024375;28;19910;-72
2022/04/25 09:35:38;;;;;;;;;;;13.10;91.20;;;;;;5055829;28;19913;-71
2022/04/25 09:38:04;;;;;;;;;;;13.10;90.80;;;;;;5024212;28;19916;-71
2022/04/25 09:40:33;;;;;;;;;;;13.20;90.40;;;;;;5023306;28;19909;-72
2022/04/25 09:43:12;;;;;;;;;;;13.10;90.30;;;;;;5024106;28;19909;-72
2022/04/25 09:45:42;;;;;;;;;;;13.20;90.30;;;;;;5024472;28;20033;-73
2022/04/25 09:48:12;;;;;;;;;;;13.40;88.40;;;;;;5038927;28;19924;-73
2022/04/25 09:50:38;;;;;;;;;;;13.20;90.20;;;;;;5055800;28;20039;-73
2022/04/25 09:53:05;;;;;;;;;;;13.30;90.30;;;;;;5056223;28;19948;-69
2022/04/25 09:55:38;;;;;;;;;;;13.40;90.40;;;;;;5024595;28;19916;-69
2022/04/25 09:58:18;;;;;;;;;;;13.30;90.30;;;;;;5023982;28;19916;-69
2022/04/25 10:00:44;;;;;;;;;;;13.50;88.60;;;;;;5024324;28;19963;-69
2022/04/25 10:03:10;;;;;;;;;;;13.40;89.40;;;;;;5024289;28;19909;-72
2022/04/25 10:05:48;;;;;;;;;;;13.40;89.40;;;;;;5023040;28;19909;-72
2022/04/25 10:08:16;;;;;;;;;;;13.40;90.00;;;;;;5024009;28;19910;-73
2022/04/25 10:10:57;;;;;;;;;;;13.40;90.00;;;;;;5023769;28;19909;-74
2022/04/25 10:13:24;;;;;;;;;;;13.60;87.10;;;;;;5022415;28;19917;-73
2022/04/25 10:15:50;;;;;;;;;;;13.70;86.70;;;;;;5054463;28;20143;-69
2022/04/25 10:18:15;;;;;;;;;;;13.60;87.80;;;;;;5022995;28;19909;-74
2022/04/25 10:20:42;;;;;;;;;;;13.70;86.80;;;;;;5054638;28;19909;-73
2022/04/25 10:23:10;;;;;;;;;;;13.70;87.70;;;;;;5038725;28;19910;-74
2022/04/25 10:25:37;;;;;;;;;;;13.90;87.10;;;;;;5022998;28;19909;-73
2022/04/25 10:28:06;;;;;;;;;;;14.00;86.10;;;;;;5053943;28;19989;-73
2022/04/25 10:30:35;;;;;;;;;;;14.10;85.10;;;;;;5038307;28;19913;-74
2022/04/25 10:33:50;;;;;;;;;;;14.20;85.20;;;;;;5037888;28;19917;-74
2022/04/25 10:36:40;;;;;;;;;;;14.30;85.30;;;;;;5023831;28;19910;-75
2022/04/25 10:39:13;;;;;;;;;;;14.50;83.80;;;;;;5022232;28;19956;-75
2022/04/25 10:44:44;;;;;;;;;;;14.50;83.90;;;;;;5043990;28;20063;-72
2022/04/25 10:47:11;;;;;;;;;;;14.50;83.40;;;;;;5022536;28;19981;-75
2022/04/25 10:49:45;;;;;;;;;;;14.30;84.40;;;;;;5053996;28;20000;-71
2022/04/25 10:52:54;;;;;;;;;;;14.10;84.20;;;;;;5021857;28;19909;-70
2022/04/25 10:55:30;;;;;;;;;;;14.00;83.50;;;;;;5022138;28;19916;-71
2022/04/25 10:58:02;;;;;;;;;;;13.90;83.50;;;;;;5021305;28;19910;-71
2022/04/25 11:00:37;;;;;;;;;;;13.80;82.70;;;;;;5022078;28;19917;-68
2022/04/25 11:03:10;;;;;;;;;;;13.70;83.50;;;;;;5020768;28;19923;-68
2022/04/25 11:05:39;;;;;;;;;;;13.60;84.70;;;;;;5022085;28;19916;-67
2022/04/25 11:08:19;;;;;;;;;;;13.60;82.70;;;;;;5021881;28;19909;-68
2022/04/25 11:10:45;;;;;;;;;;;13.30;84.10;;;;;;5021743;28;20116;-67
2022/04/25 11:13:12;;;;;;;;;;;13.10;86.30;;;;;;5021509;28;19979;-67
2022/04/25 11:15:39;;;;;;;;;;;13.10;87.10;;;;;;5028693;28;20108;-67
2022/04/25 11:18:21;;;;;;;;;;;13.20;86.30;;;;;;5041695;28;19920;-68
2022/04/25 11:20:58;;;;;;;;;;;13.10;86.20;;;;;;5041150;28;19916;-67
2022/04/25 11:23:26;;;;;;;;;;;12.90;87.00;;;;;;5041478;28;20188;-67
2022/04/25 11:25:55;;;;;;;;;;;12.90;87.60;;;;;;5041103;28;19917;-67
2022/04/25 11:28:21;;;;;;;;;;;12.70;89.70;;;;;;5027818;28;19920;-68
2022/04/25 11:31:12;;;;;;;;;;;12.70;89.90;;;;;;5021377;28;19909;-67
2022/04/25 11:33:42;;;;;;;;;;;12.70;89.00;;;;;;5021556;28;20208;-67
2022/04/25 11:36:08;;;;;;;;;;;12.50;90.20;;;;;;5021712;28;19940;-67
2022/04/25 11:41:25;;;;;;;;;;;12.50;90.70;;;;;;5021180;28;19932;-67
2022/04/25 11:43:51;;;;;;;;;;;12.50;90.80;;;;;;5021097;28;19981;-66
2022/04/25 11:46:16;;;;;;;;;;;12.50;90.80;;;;;;5023169;28;19910;-67
2022/04/25 11:48:42;;;;;;;;;;;12.50;91.10;;;;;;5025529;28;20259;-67
2022/04/25 11:51:08;;;;;;;;;;;12.50;90.60;;;;;;5025184;28;19909;-67
2022/04/25 11:53:34;;;;;;;;;;;12.60;90.60;;;;;;5025187;28;19916;-67
2022/04/25 11:56:12;;;;;;;;;;;12.60;90.40;;;;;;5025345;28;19910;-67
2022/04/25 11:58:38;;;;;;;;;;;12.70;90.00;;;;;;5024525;28;19917;-67
2022/04/25 12:01:04;;;;;;;;;;;12.60;90.30;;;;;;5025104;28;20124;-67
2022/04/25 12:03:30;;;;;;;;;;;12.80;89.80;;;;;;5057051;28;19909;-66
2022/04/25 12:06:09;;;;;;;;;;;12.80;90.00;;;;;;5025008;28;20075;-67
2022/04/25 12:16:48;;;;;;;;;;;12.90;90.10;;;;;;5051560;28;19917;-67
2022/04/25 12:19:14;;;;;;;;;;;12.90;90.30;;;;;;5056463;28;19969;-67
2022/04/25 12:21:47;;;;;;;;;;;12.90;90.00;;;;;;5024716;28;19910;-66
2022/04/25 12:24:19;;;;;;;;;;;12.90;89.60;;;;;;5024791;28;20252;-67
2022/04/25 12:26:44;;;;;;;;;;;13.00;88.50;;;;;;5024715;28;19916;-68
2022/04/25 12:29:12;;;;;;;;;;;12.90;88.20;;;;;;5024216;28;19918;-67
2022/04/25 12:31:48;;;;;;;;;;;13.00;88.20;;;;;;5033364;28;19921;-67
2022/04/25 12:34:16;;;;;;;;;;;13.10;87.60;;;;;;5035871;28;20187;-67
2022/04/25 12:36:55;;;;;;;;;;;13.10;88.00;;;;;;5035977;28;19941;-67
2022/04/25 12:39:20;;;;;;;;;;;13.10;88.70;;;;;;5031186;28;19909;-67
2022/04/25 12:41:56;;;;;;;;;;;13.20;87.50;;;;;;5033571;28;20103;-66
2022/04/25 12:44:22;;;;;;;;;;;13.10;87.70;;;;;;5030227;28;20112;-67
2022/04/25 12:47:04;;;;;;;;;;;13.40;87.80;;;;;;5025718;28;19918;-67
2022/04/25 12:49:36;;;;;;;;;;;13.60;86.00;;;;;;5024534;28;19913;-67
2022/04/25 12:52:09;;;;;;;;;;;13.60;86.30;;;;;;5024195;28;19924;-66
2022/04/25 12:54:41;;;;;;;;;;;13.70;85.50;;;;;;5024058;28;19921;-66
2022/04/25 12:57:16;;;;;;;;;;;13.80;84.10;;;;;;5022804;28;19909;-67
2022/04/25 12:59:49;;;;;;;;;;;13.80;84.10;;;;;;5024254;28;19916;-67
2022/04/25 13:02:17;;;;;;;;;;;13.80;84.70;;;;;;5023918;28;19933;-66
2022/04/25 13:04:53;;;;;;;;;;;13.80;84.30;;;;;;5024156;28;19917;-67
2022/04/25 13:07:22;;;;;;;;;;;14.00;84.40;;;;;;5024176;28;19913;-67
2022/04/25 13:09:48;;;;;;;;;;;14.20;83.30;;;;;;5023997;28;19913;-68
2022/04/25 13:12:17;;;;;;;;;;;14.10;83.80;;;;;;5023827;28;19916;-67
2022/04/25 13:14:43;;;;;;;;;;;14.30;82.70;;;;;;5024054;28;19917;-66
2022/04/25 13:17:09;;;;;;;;;;;14.30;81.70;;;;;;5023888;28;19916;-67
2022/04/25 13:19:35;;;;;;;;;;;14.30;82.30;;;;;;5026270;28;19996;-67
2022/04/25 13:22:01;;;;;;;;;;;14.30;82.90;;;;;;5023679;28;20197;-67
2022/04/25 13:24:27;;;;;;;;;;;14.30;83.10;;;;;;5023847;28;19909;-67
2022/04/25 13:26:52;;;;;;;;;;;14.40;82.10;;;;;;5023581;28;19918;-67
2022/04/25 13:29:18;;;;;;;;;;;14.50;80.80;;;;;;5021894;28;19921;-67
2022/04/25 13:31:44;;;;;;;;;;;14.40;80.60;;;;;;5023239;28;19921;-67
2022/04/25 13:34:09;;;;;;;;;;;14.40;81.80;;;;;;5023609;28;19910;-67
2022/04/25 13:36:35;;;;;;;;;;;14.60;80.60;;;;;;5023759;28;19910;-67
2022/04/25 13:39:01;;;;;;;;;;;14.60;80.70;;;;;;5023422;28;19929;-67
2022/04/25 13:41:28;;;;;;;;;;;14.70;80.30;;;;;;5023185;28;19914;-67
2022/04/25 13:43:54;;;;;;;;;;;15.10;78.20;;;;;;5022930;28;20253;-67
2022/04/25 13:46:20;;;;;;;;;;;15.10;79.60;;;;;;5023308;28;19909;-66
2022/04/25 13:48:46;;;;;;;;;;;15.30;78.50;;;;;;5022819;28;20205;-67
2022/04/25 13:51:11;;;;;;;;;;;15.70;78.00;;;;;;5022839;28;20204;-67
2022/04/25 13:53:38;;;;;;;;;;;16.20;76.10;;;;;;5023052;28;19917;-67
2022/04/25 13:56:06;;;;;;;;;;;16.60;73.80;;;;;;5022823;28;19978;-67
2022/04/25 13:58:31;;;;;;;;;;;17.30;84.80;;;;;;5021924;28;20145;-67
2022/04/25 14:00:57;;;;;;;;;;;18.20;83.40;;;;;;5022633;28;20032;-67
2022/04/25 14:03:23;;;;;;;;;;;19.60;77.10;;;;;;5022817;28;19977;-67
2022/04/25 14:05:50;;;;;;;;;;;20.50;59.00;;;;;;5022801;28;19909;-67
2022/04/25 14:08:15;;;;;;;;;;;21.60;55.00;;;;;;5022057;28;19910;-67
2022/04/25 14:10:44;;;;;;;;;;;21.20;55.10;;;;;;5024729;28;19913;-67
2022/04/25 14:13:11;;;;;;;;;;;20.80;55.30;;;;;;5042441;28;20392;-67
2022/04/25 14:15:38;;;;;;;;;;;21.00;55.70;;;;;;5042607;28;19913;-67
2022/04/25 14:18:04;;;;;;;;;;;21.90;51.20;;;;;;5042596;28;19917;-67
2022/04/25 14:20:30;;;;;;;;;;;22.10;49.90;;;;;;5042556;28;19908;-67
2022/04/25 14:23:00;;;;;;;;;;;22.70;49.00;;;;;;5042262;28;19909;-67
2022/04/25 14:25:26;;;;;;;;;;;23.90;45.30;;;;;;5042428;28;19937;-67
2022/04/25 14:27:52;;;;;;;;;;;23.80;44.70;;;;;;5034159;28;19910;-67
2022/04/25 14:30:18;;;;;;;;;;;22.80;45.90;;;;;;5022487;28;20331;-68
2022/04/25 14:32:44;;;;;;;;;;;21.70;48.10;;;;;;5022330;28;19968;-67
2022/04/25 14:35:10;;;;;;;;;;;20.80;49.90;;;;;;5022176;28;19916;-67
2022/04/25 14:37:36;;;;;;;;;;;19.90;52.30;;;;;;5022211;28;19945;-67
2022/04/25 14:40:03;;;;;;;;;;;19.40;54.00;;;;;;5022257;28;19932;-67
2022/04/25 14:42:29;;;;;;;;;;;18.70;56.40;;;;;;5021723;28;19955;-67
2022/04/25 14:44:55;;;;;;;;;;;18.50;56.90;;;;;;5022066;28;19913;-67
2022/04/25 14:47:20;;;;;;;;;;;18.20;58.50;;;;;;5021846;28;19952;-67
2022/04/25 14:55:14;;;;;;;;;;;17.40;60.40;;;;;;5021936;28;19936;-67
2022/04/25 14:57:40;;;;;;;;;;;17.20;61.50;;;;;;5021372;28;19980;-67
2022/04/25 15:00:07;;;;;;;;;;;17.10;61.50;;;;;;5021696;28;19914;-66
2022/04/25 15:02:32;;;;;;;;;;;16.90;61.40;;;;;;5021715;28;19917;-67
2022/04/25 15:04:58;;;;;;;;;;;16.90;60.40;;;;;;5021721;28;20157;-66
2022/04/25 15:07:24;;;;;;;;;;;16.60;61.10;;;;;;5021689;28;19909;-66
2022/04/25 15:09:49;;;;;;;;;;;16.50;62.70;;;;;;5021593;28;20115;-67
2022/04/25 15:12:15;;;;;;;;;;;16.50;64.70;;;;;;5053101;28;19927;-67
2022/04/25 15:14:41;;;;;;;;;;;16.50;63.90;;;;;;5021460;28;20085;-67